sensor_id;sensor_type;location;lat;lon;timestamp;pressure;altitude;pressure_sealevel;temperature;humidity
19259;BME280;9763;48.780;9.212;2022-10-10T00:01:01;98466.78;;;16.77;54.54
19259;BME280;9763;48.780;9.212;2022-10-10T00:04:26;98461.22;;;16.80;54.67
19259;BME280;9763;48.780;9.212;2022-10-10T00:07:53;98463.56;;;16.83;54.90
19259;BME280;9763;48.780;9.212;2022-10-10T00:11:21;98463.31;;;16.86;54.69
19259;BME280;9763;48.780;9.212;2022-10-10T00:14:45;98464.84;;;16.88;54.64
19259;BME280;9763;48.780;9.212;2022-10-10T00:18:10;98461.06;;;16.91;54.41
19259;BME280;9763;48.780;9.212;2022-10-10T00:21:35;98455.97;;;16.89;55.06
19259;BME280;9763;48.780;9.212;2022-10-10T00:25:00;98450.00;;;16.87;54.99
19259;BME280;9763;48.780;9.212;2022-10-10T00:28:26;98447.50;;;16.86;54.84
19259;BME280;9763;48.780;9.212;2022-10-10T00:31:51;98447.63;;;16.84;55.23
19259;BME280;9763;48.780;9.212;2022-10-10T00:35:17;98450.25;;;16.84;55.27
19259;BME280;9763;48.780;9.212;2022-10-10T00:38:42;98448.47;;;16.85;54.77
19259;BME280;9763;48.780;9.212;2022-10-10T00:42:10;98450.97;;;16.86;55.02
19259;BME280;9763;48.780;9.212;2022-10-10T00:45:42;98445.56;;;16.88;55.17
19259;BME280;9763;48.780;9.212;2022-10-10T00:49:12;98448.06;;;16.89;55.16
19259;BME280;9763;48.780;9.212;2022-10-10T00:52:38;98438.19;;;16.91;54.91
19259;BME280;9763;48.780;9.212;2022-10-10T00:56:03;98442.91;;;16.98;55.54
19259;BME280;9763;48.780;9.212;2022-10-10T00:59:33;98446.78;;;17.03;55.14
19259;BME280;9763;48.780;9.212;2022-10-10T01:02:59;98439.56;;;17.05;55.31
19259;BME280;9763;48.780;9.212;2022-10-10T01:06:24;98431.38;;;17.08;55.36
19259;BME280;9763;48.780;9.212;2022-10-10T01:09:53;98431.13;;;17.11;54.91
19259;BME280;9763;48.780;9.212;2022-10-10T01:13:29;98430.97;;;17.13;54.77
19259;BME280;9763;48.780;9.212;2022-10-10T01:17:09;98423.72;;;17.15;54.67
19259;BME280;9763;48.780;9.212;2022-10-10T01:20:57;98416.66;;;17.15;55.01
19259;BME280;9763;48.780;9.212;2022-10-10T01:24:54;98421.09;;;17.15;54.68
19259;BME280;9763;48.780;9.212;2022-10-10T01:28:35;98417.50;;;17.16;55.27
19259;BME280;9763;48.780;9.212;2022-10-10T01:32:12;98415.81;;;17.15;54.66
19259;BME280;9763;48.780;9.212;2022-10-10T01:35:48;98413.19;;;17.15;54.88
19259;BME280;9763;48.780;9.212;2022-10-10T01:39:22;98410.00;;;17.11;54.74
19259;BME280;9763;48.780;9.212;2022-10-10T01:42:54;98413.75;;;17.09;55.28
19259;BME280;9763;48.780;9.212;2022-10-10T01:46:21;98413.06;;;17.07;55.19
19259;BME280;9763;48.780;9.212;2022-10-10T01:49:48;98409.72;;;17.05;54.94
19259;BME280;9763;48.780;9.212;2022-10-10T01:53:22;98413.34;;;17.04;55.54
19259;BME280;9763;48.780;9.212;2022-10-10T01:57:00;98405.88;;;16.99;55.16
19259;BME280;9763;48.780;9.212;2022-10-10T02:00:35;98405.31;;;16.96;55.10
19259;BME280;9763;48.780;9.212;2022-10-10T02:04:13;98406.53;;;16.91;55.83
19259;BME280;9763;48.780;9.212;2022-10-10T02:07:47;98399.06;;;16.87;55.84
19259;BME280;9763;48.780;9.212;2022-10-10T02:11:14;98403.66;;;16.85;55.77
19259;BME280;9763;48.780;9.212;2022-10-10T02:14:43;98398.63;;;16.82;55.88
19259;BME280;9763;48.780;9.212;2022-10-10T02:18:11;98400.44;;;16.81;55.31
19259;BME280;9763;48.780;9.212;2022-10-10T02:21:41;98402.38;;;16.79;55.48
19259;BME280;9763;48.780;9.212;2022-10-10T02:25:07;98402.53;;;16.78;55.39
19259;BME280;9763;48.780;9.212;2022-10-10T02:28:38;98407.25;;;16.74;55.54
19259;BME280;9763;48.780;9.212;2022-10-10T02:32:11;98408.50;;;16.70;55.82
19259;BME280;9763;48.780;9.212;2022-10-10T02:35:42;98409.59;;;16.68;56.16
19259;BME280;9763;48.780;9.212;2022-10-10T02:39:13;98407.94;;;16.67;55.96
19259;BME280;9763;48.780;9.212;2022-10-10T02:42:39;98401.84;;;16.66;56.47
19259;BME280;9763;48.780;9.212;2022-10-10T02:46:08;98410.72;;;16.65;56.09
19259;BME280;9763;48.780;9.212;2022-10-10T02:49:35;98396.84;;;16.63;55.79
19259;BME280;9763;48.780;9.212;2022-10-10T02:52:59;98404.75;;;16.63;56.66
19259;BME280;9763;48.780;9.212;2022-10-10T02:56:25;98408.47;;;16.61;56.39
19259;BME280;9763;48.780;9.212;2022-10-10T02:59:49;98400.56;;;16.61;56.07
19259;BME280;9763;48.780;9.212;2022-10-10T03:03:14;98400.13;;;16.55;56.41
19259;BME280;9763;48.780;9.212;2022-10-10T03:06:39;98404.97;;;16.50;56.91
19259;BME280;9763;48.780;9.212;2022-10-10T03:10:04;98403.72;;;16.45;56.43
19259;BME280;9763;48.780;9.212;2022-10-10T03:13:31;98402.47;;;16.39;56.39
19259;BME280;9763;48.780;9.212;2022-10-10T03:16:56;98402.88;;;16.35;56.25
19259;BME280;9763;48.780;9.212;2022-10-10T03:20:20;98406.72;;;16.31;57.04
19259;BME280;9763;48.780;9.212;2022-10-10T03:23:45;98405.22;;;16.28;57.16
19259;BME280;9763;48.780;9.212;2022-10-10T03:27:10;98403.44;;;16.29;56.57
19259;BME280;9763;48.780;9.212;2022-10-10T03:30:37;98407.56;;;16.31;56.60
19259;BME280;9763;48.780;9.212;2022-10-10T03:34:01;98409.94;;;16.34;56.78
19259;BME280;9763;48.780;9.212;2022-10-10T03:37:25;98403.56;;;16.37;56.47
19259;BME280;9763;48.780;9.212;2022-10-10T03:40:49;98400.81;;;16.38;56.48
19259;BME280;9763;48.780;9.212;2022-10-10T03:44:14;98394.56;;;16.39;57.05
19259;BME280;9763;48.780;9.212;2022-10-10T03:47:40;98395.41;;;16.40;56.61
19259;BME280;9763;48.780;9.212;2022-10-10T03:51:05;98393.75;;;16.39;57.22
19259;BME280;9763;48.780;9.212;2022-10-10T03:54:29;98394.44;;;16.41;56.57
19259;BME280;9763;48.780;9.212;2022-10-10T03:57:54;98397.91;;;16.41;56.75
19259;BME280;9763;48.780;9.212;2022-10-10T04:01:19;98403.84;;;16.43;56.49
19259;BME280;9763;48.780;9.212;2022-10-10T04:04:46;98393.31;;;16.43;56.86
19259;BME280;9763;48.780;9.212;2022-10-10T04:08:10;98393.19;;;16.45;56.97
19259;BME280;9763;48.780;9.212;2022-10-10T04:11:34;98395.94;;;16.43;56.85
19259;BME280;9763;48.780;9.212;2022-10-10T04:15:00;98386.66;;;16.39;56.70
19259;BME280;9763;48.780;9.212;2022-10-10T04:18:25;98395.66;;;16.37;56.63
19259;BME280;9763;48.780;9.212;2022-10-10T04:21:52;98404.28;;;16.39;57.17
19259;BME280;9763;48.780;9.212;2022-10-10T04:25:16;98390.97;;;16.40;56.90
19259;BME280;9763;48.780;9.212;2022-10-10T04:28:40;98398.75;;;16.42;57.32
19259;BME280;9763;48.780;9.212;2022-10-10T04:32:05;98388.22;;;16.42;56.83
19259;BME280;9763;48.780;9.212;2022-10-10T04:35:29;98386.53;;;16.41;57.05
19259;BME280;9763;48.780;9.212;2022-10-10T04:38:56;98392.78;;;16.40;57.58
19259;BME280;9763;48.780;9.212;2022-10-10T04:42:22;98382.50;;;16.37;57.05
19259;BME280;9763;48.780;9.212;2022-10-10T04:45:46;98385.66;;;16.31;57.76
19259;BME280;9763;48.780;9.212;2022-10-10T04:49:11;98388.84;;;16.25;57.51
19259;BME280;9763;48.780;9.212;2022-10-10T04:52:36;98383.31;;;16.18;57.34
19259;BME280;9763;48.780;9.212;2022-10-10T04:56:02;98385.38;;;16.14;57.66
19259;BME280;9763;48.780;9.212;2022-10-10T04:59:27;98387.31;;;16.12;57.39
19259;BME280;9763;48.780;9.212;2022-10-10T05:02:51;98389.38;;;16.09;57.30
19259;BME280;9763;48.780;9.212;2022-10-10T05:06:16;98386.03;;;16.07;57.81
19259;BME280;9763;48.780;9.212;2022-10-10T05:09:41;98379.25;;;16.04;57.28
19259;BME280;9763;48.780;9.212;2022-10-10T05:13:07;98385.50;;;16.03;57.93
19259;BME280;9763;48.780;9.212;2022-10-10T05:16:33;98381.19;;;16.02;57.57
19259;BME280;9763;48.780;9.212;2022-10-10T05:19:58;98381.56;;;15.98;58.11
19259;BME280;9763;48.780;9.212;2022-10-10T05:23:22;98389.19;;;15.91;57.83
19259;BME280;9763;48.780;9.212;2022-10-10T05:26:47;98388.03;;;15.84;58.46
19259;BME280;9763;48.780;9.212;2022-10-10T05:30:13;98384.28;;;15.77;58.27
19259;BME280;9763;48.780;9.212;2022-10-10T05:33:37;98390.91;;;15.71;58.81
19259;BME280;9763;48.780;9.212;2022-10-10T05:37:01;98393.66;;;15.70;59.91
19259;BME280;9763;48.780;9.212;2022-10-10T05:40:26;98392.69;;;15.71;59.48
19259;BME280;9763;48.780;9.212;2022-10-10T05:43:50;98401.56;;;15.70;59.91
19259;BME280;9763;48.780;9.212;2022-10-10T05:47:16;98398.91;;;15.70;59.96
19259;BME280;9763;48.780;9.212;2022-10-10T05:50:46;98412.06;;;15.70;60.59
19259;BME280;9763;48.780;9.212;2022-10-10T05:54:11;98410.03;;;15.73;60.32
19259;BME280;9763;48.780;9.212;2022-10-10T05:57:35;98416.69;;;15.77;60.49
19259;BME280;9763;48.780;9.212;2022-10-10T06:01:03;98408.00;;;15.87;60.26
19259;BME280;9763;48.780;9.212;2022-10-10T06:04:29;98407.78;;;15.99;60.64
19259;BME280;9763;48.780;9.212;2022-10-10T06:07:54;98409.59;;;16.08;59.75
19259;BME280;9763;48.780;9.212;2022-10-10T06:11:35;98409.34;;;16.11;59.71
19259;BME280;9763;48.780;9.212;2022-10-10T06:14:59;98408.66;;;16.19;59.64
19259;BME280;9763;48.780;9.212;2022-10-10T06:18:24;98413.69;;;16.32;59.88
19259;BME280;9763;48.780;9.212;2022-10-10T06:21:50;98417.19;;;16.42;59.24
19259;BME280;9763;48.780;9.212;2022-10-10T06:25:15;98411.78;;;16.53;59.94
19259;BME280;9763;48.780;9.212;2022-10-10T06:28:59;98417.50;;;16.68;59.81
19259;BME280;9763;48.780;9.212;2022-10-10T06:32:24;98426.81;;;16.81;59.44
19259;BME280;9763;48.780;9.212;2022-10-10T06:35:48;98427.22;;;16.96;58.98
19259;BME280;9763;48.780;9.212;2022-10-10T06:39:14;98433.88;;;17.10;59.53
19259;BME280;9763;48.780;9.212;2022-10-10T06:42:39;98430.97;;;17.22;59.15
19259;BME280;9763;48.780;9.212;2022-10-10T06:46:03;98442.06;;;17.36;58.68
19259;BME280;9763;48.780;9.212;2022-10-10T06:49:28;98441.19;;;17.45;59.02
19259;BME280;9763;48.780;9.212;2022-10-10T06:52:52;98448.00;;;17.47;58.45
19259;BME280;9763;48.780;9.212;2022-10-10T06:56:17;98451.75;;;17.45;59.12
19259;BME280;9763;48.780;9.212;2022-10-10T06:59:49;98456.34;;;17.43;58.62
19259;BME280;9763;48.780;9.212;2022-10-10T07:03:14;98451.19;;;17.51;58.99
19259;BME280;9763;48.780;9.212;2022-10-10T07:06:38;98454.22;;;17.66;58.63
19259;BME280;9763;48.780;9.212;2022-10-10T07:10:04;98455.44;;;17.81;58.99
19259;BME280;9763;48.780;9.212;2022-10-10T07:13:30;98454.97;;;17.95;58.98
19259;BME280;9763;48.780;9.212;2022-10-10T07:16:54;98466.88;;;18.09;58.21
19259;BME280;9763;48.780;9.212;2022-10-10T07:20:20;98460.81;;;18.26;58.05
19259;BME280;9763;48.780;9.212;2022-10-10T07:23:45;98469.16;;;18.49;58.09
19259;BME280;9763;48.780;9.212;2022-10-10T07:27:10;98469.09;;;18.68;57.98
19259;BME280;9763;48.780;9.212;2022-10-10T07:30:39;98468.28;;;18.85;58.19
19259;BME280;9763;48.780;9.212;2022-10-10T07:34:05;98468.03;;;18.96;57.60
19259;BME280;9763;48.780;9.212;2022-10-10T07:37:30;98476.06;;;19.04;57.56
19259;BME280;9763;48.780;9.212;2022-10-10T07:40:54;98466.53;;;19.12;57.99
19259;BME280;9763;48.780;9.212;2022-10-10T07:44:22;98471.25;;;19.18;57.27
19259;BME280;9763;48.780;9.212;2022-10-10T07:47:48;98465.78;;;19.19;57.75
19259;BME280;9763;48.780;9.212;2022-10-10T07:51:16;98480.75;;;19.28;57.18
19259;BME280;9763;48.780;9.212;2022-10-10T07:54:40;98478.78;;;19.30;57.57
19259;BME280;9763;48.780;9.212;2022-10-10T07:58:04;98479.00;;;19.37;57.49
19259;BME280;9763;48.780;9.212;2022-10-10T08:01:29;98482.50;;;19.55;57.32
19259;BME280;9763;48.780;9.212;2022-10-10T08:04:55;98483.78;;;19.77;56.68
19259;BME280;9763;48.780;9.212;2022-10-10T08:08:19;98483.88;;;19.93;56.93
19259;BME280;9763;48.780;9.212;2022-10-10T08:11:45;98479.97;;;20.05;56.47
19259;BME280;9763;48.780;9.212;2022-10-10T08:15:10;98486.34;;;20.21;56.89
19259;BME280;9763;48.780;9.212;2022-10-10T08:18:39;98482.28;;;20.34;56.80
19259;BME280;9763;48.780;9.212;2022-10-10T08:22:05;98492.59;;;20.37;56.19
19259;BME280;9763;48.780;9.212;2022-10-10T08:25:29;98486.31;;;20.38;56.67
19259;BME280;9763;48.780;9.212;2022-10-10T08:28:53;98484.97;;;20.42;56.70
19259;BME280;9763;48.780;9.212;2022-10-10T08:32:18;98478.06;;;20.49;56.65
19259;BME280;9763;48.780;9.212;2022-10-10T08:35:42;98480.88;;;20.56;56.21
19259;BME280;9763;48.780;9.212;2022-10-10T08:39:07;98484.88;;;20.60;56.21
19259;BME280;9763;48.780;9.212;2022-10-10T08:42:38;98475.94;;;20.69;55.96
19259;BME280;9763;48.780;9.212;2022-10-10T08:46:20;98479.13;;;20.81;55.98
19259;BME280;9763;48.780;9.212;2022-10-10T08:49:52;98474.03;;;20.96;55.64
19259;BME280;9763;48.780;9.212;2022-10-10T08:53:24;98472.56;;;21.26;56.18
19259;BME280;9763;48.780;9.212;2022-10-10T08:56:54;98476.06;;;21.59;55.16
19259;BME280;9763;48.780;9.212;2022-10-10T09:00:23;98471.34;;;22.01;55.16
19259;BME280;9763;48.780;9.212;2022-10-10T09:03:51;98475.25;;;22.69;55.57
19259;BME280;9763;48.780;9.212;2022-10-10T09:07:30;98477.63;;;23.17;54.21
19259;BME280;9763;48.780;9.212;2022-10-10T09:11:09;98467.06;;;23.47;54.56
19259;BME280;9763;48.780;9.212;2022-10-10T09:14:48;98463.16;;;23.57;54.34
19259;BME280;9763;48.780;9.212;2022-10-10T09:18:29;98474.38;;;23.67;53.87
19259;BME280;9763;48.780;9.212;2022-10-10T09:22:04;98473.59;;;23.82;53.18
19259;BME280;9763;48.780;9.212;2022-10-10T09:25:37;98478.47;;;24.08;52.97
19259;BME280;9763;48.780;9.212;2022-10-10T09:29:21;98482.28;;;24.28;53.14
19259;BME280;9763;48.780;9.212;2022-10-10T09:32:56;98486.59;;;24.44;53.08
19259;BME280;9763;48.780;9.212;2022-10-10T09:36:28;98484.28;;;24.55;52.90
19259;BME280;9763;48.780;9.212;2022-10-10T09:40:02;98492.38;;;24.62;52.55
19259;BME280;9763;48.780;9.212;2022-10-10T09:43:32;98486.06;;;24.99;53.26
19259;BME280;9763;48.780;9.212;2022-10-10T09:46:58;98495.84;;;25.56;52.68
19259;BME280;9763;48.780;9.212;2022-10-10T09:50:24;98490.44;;;26.67;52.12
19259;BME280;9763;48.780;9.212;2022-10-10T09:53:49;98482.78;;;27.38;50.77
19259;BME280;9763;48.780;9.212;2022-10-10T09:57:19;98485.66;;;27.43;50.73
19259;BME280;9763;48.780;9.212;2022-10-10T10:00:46;98492.47;;;27.26;50.08
19259;BME280;9763;48.780;9.212;2022-10-10T10:04:16;98490.59;;;27.13;50.48
19259;BME280;9763;48.780;9.212;2022-10-10T10:07:57;98483.75;;;26.98;49.89
19259;BME280;9763;48.780;9.212;2022-10-10T10:11:31;98488.81;;;26.79;49.95
19259;BME280;9763;48.780;9.212;2022-10-10T10:15:01;98484.25;;;26.67;50.32
19259;BME280;9763;48.780;9.212;2022-10-10T10:18:26;98490.19;;;26.62;50.00
19259;BME280;9763;48.780;9.212;2022-10-10T10:21:51;98490.44;;;26.67;49.88
19259;BME280;9763;48.780;9.212;2022-10-10T10:25:38;98483.16;;;27.22;49.79
19259;BME280;9763;48.780;9.212;2022-10-10T10:29:02;98473.41;;;28.40;49.40
19259;BME280;9763;48.780;9.212;2022-10-10T10:32:49;98473.06;;;29.19;48.96
19259;BME280;9763;48.780;9.212;2022-10-10T10:36:30;98484.69;;;29.44;48.21
19259;BME280;9763;48.780;9.212;2022-10-10T10:40:17;98477.28;;;29.40;47.85
19259;BME280;9763;48.780;9.212;2022-10-10T10:44:03;98480.84;;;29.27;47.49
19259;BME280;9763;48.780;9.212;2022-10-10T10:47:45;98470.41;;;29.12;47.47
19259;BME280;9763;48.780;9.212;2022-10-10T10:51:42;98468.75;;;29.11;47.51
19259;BME280;9763;48.780;9.212;2022-10-10T10:55:20;98467.16;;;29.03;47.33
19259;BME280;9763;48.780;9.212;2022-10-10T10:59:06;98460.63;;;28.86;47.32
19259;BME280;9763;48.780;9.212;2022-10-10T11:03:09;98468.50;;;28.75;47.41
19259;BME280;9763;48.780;9.212;2022-10-10T11:07:10;98468.94;;;28.78;47.01
19259;BME280;9763;48.780;9.212;2022-10-10T11:10:50;98469.75;;;29.73;47.29
19259;BME280;9763;48.780;9.212;2022-10-10T11:14:42;98466.03;;;31.02;46.27
19259;BME280;9763;48.780;9.212;2022-10-10T11:18:15;98462.47;;;31.96;45.37
19259;BME280;9763;48.780;9.212;2022-10-10T11:21:47;98460.38;;;32.73;44.66
19259;BME280;9763;48.780;9.212;2022-10-10T11:25:18;98444.06;;;33.42;43.98
19259;BME280;9763;48.780;9.212;2022-10-10T11:28:49;98433.03;;;33.98;43.08
19259;BME280;9763;48.780;9.212;2022-10-10T11:32:26;98441.94;;;34.16;42.28
19259;BME280;9763;48.780;9.212;2022-10-10T11:35:58;98437.47;;;34.05;42.12
19259;BME280;9763;48.780;9.212;2022-10-10T11:39:28;98432.28;;;34.03;42.11
19259;BME280;9763;48.780;9.212;2022-10-10T11:42:58;98424.00;;;34.31;42.04
19259;BME280;9763;48.780;9.212;2022-10-10T11:46:32;98428.41;;;34.59;41.06
19259;BME280;9763;48.780;9.212;2022-10-10T11:50:13;98426.97;;;34.52;40.17
19259;BME280;9763;48.780;9.212;2022-10-10T11:53:42;98416.09;;;34.30;39.94
19259;BME280;9763;48.780;9.212;2022-10-10T11:57:16;98420.09;;;34.06;39.57
19259;BME280;9763;48.780;9.212;2022-10-10T12:00:46;98413.00;;;33.83;39.31
19259;BME280;9763;48.780;9.212;2022-10-10T12:04:10;98410.00;;;33.62;39.58
19259;BME280;9763;48.780;9.212;2022-10-10T12:07:53;98409.56;;;33.20;39.04
19259;BME280;9763;48.780;9.212;2022-10-10T12:11:29;98401.91;;;32.44;39.35
19259;BME280;9763;48.780;9.212;2022-10-10T12:14:59;98405.16;;;32.06;39.47
19259;BME280;9763;48.780;9.212;2022-10-10T12:18:27;98398.63;;;31.67;39.47
19259;BME280;9763;48.780;9.212;2022-10-10T12:21:58;98411.88;;;31.03;39.31
19259;BME280;9763;48.780;9.212;2022-10-10T12:25:36;98409.09;;;30.32;39.83
19259;BME280;9763;48.780;9.212;2022-10-10T12:29:06;98405.94;;;29.80;40.62
19259;BME280;9763;48.780;9.212;2022-10-10T12:32:40;98398.84;;;29.43;41.18
19259;BME280;9763;48.780;9.212;2022-10-10T12:40:31;98403.13;;;28.94;41.81
19259;BME280;9763;48.780;9.212;2022-10-10T12:44:20;98407.16;;;28.72;42.03
19259;BME280;9763;48.780;9.212;2022-10-10T12:47:45;98400.84;;;28.53;41.74
19259;BME280;9763;48.780;9.212;2022-10-10T12:51:28;98396.97;;;28.42;42.06
19259;BME280;9763;48.780;9.212;2022-10-10T12:55:00;98395.59;;;28.26;42.35
19259;BME280;9763;48.780;9.212;2022-10-10T12:58:33;98393.81;;;28.01;42.96
19259;BME280;9763;48.780;9.212;2022-10-10T13:02:10;98393.88;;;27.74;42.91
19259;BME280;9763;48.780;9.212;2022-10-10T13:05:38;98401.50;;;27.44;43.14
19259;BME280;9763;48.780;9.212;2022-10-10T13:09:07;98409.16;;;27.21;43.64
19259;BME280;9763;48.780;9.212;2022-10-10T13:12:32;98399.66;;;27.05;42.94
19259;BME280;9763;48.780;9.212;2022-10-10T13:16:05;98408.69;;;26.91;43.38
19259;BME280;9763;48.780;9.212;2022-10-10T13:19:40;98406.19;;;26.76;43.89
19259;BME280;9763;48.780;9.212;2022-10-10T13:23:10;98403.47;;;26.57;43.42
19259;BME280;9763;48.780;9.212;2022-10-10T13:26:38;98413.88;;;26.38;44.07
19259;BME280;9763;48.780;9.212;2022-10-10T13:30:05;98411.94;;;26.19;43.67
19259;BME280;9763;48.780;9.212;2022-10-10T13:33:33;98416.81;;;26.09;43.87
19259;BME280;9763;48.780;9.212;2022-10-10T13:37:00;98414.38;;;26.14;43.79
19259;BME280;9763;48.780;9.212;2022-10-10T13:40:26;98415.47;;;26.26;44.37
19259;BME280;9763;48.780;9.212;2022-10-10T13:43:51;98416.34;;;26.33;43.88
19259;BME280;9763;48.780;9.212;2022-10-10T13:47:50;98419.63;;;26.29;44.23
19259;BME280;9763;48.780;9.212;2022-10-10T13:51:16;98413.59;;;26.20;44.75
19259;BME280;9763;48.780;9.212;2022-10-10T13:54:44;98413.31;;;26.08;44.95
19259;BME280;9763;48.780;9.212;2022-10-10T13:58:09;98418.59;;;25.95;44.40
19259;BME280;9763;48.780;9.212;2022-10-10T14:01:36;98414.84;;;25.90;44.71
19259;BME280;9763;48.780;9.212;2022-10-10T14:05:05;98415.66;;;25.83;44.56
19259;BME280;9763;48.780;9.212;2022-10-10T14:08:32;98414.75;;;25.70;44.35
19259;BME280;9763;48.780;9.212;2022-10-10T14:12:00;98422.00;;;25.55;45.27
19259;BME280;9763;48.780;9.212;2022-10-10T14:15:42;98424.84;;;25.46;44.72
19259;BME280;9763;48.780;9.212;2022-10-10T14:19:15;98422.09;;;25.40;45.37
19259;BME280;9763;48.780;9.212;2022-10-10T14:22:41;98417.09;;;25.30;45.53
19259;BME280;9763;48.780;9.212;2022-10-10T14:26:12;98417.03;;;25.24;45.31
19259;BME280;9763;48.780;9.212;2022-10-10T14:29:37;98425.00;;;25.17;45.44
19259;BME280;9763;48.780;9.212;2022-10-10T14:33:01;98418.31;;;25.06;45.06
19259;BME280;9763;48.780;9.212;2022-10-10T14:36:24;98418.84;;;24.95;45.61
19259;BME280;9763;48.780;9.212;2022-10-10T14:39:48;98415.63;;;24.85;45.42
19259;BME280;9763;48.780;9.212;2022-10-10T14:43:14;98427.03;;;24.79;45.99
19259;BME280;9763;48.780;9.212;2022-10-10T14:46:38;98431.94;;;24.75;45.90
19259;BME280;9763;48.780;9.212;2022-10-10T14:50:03;98433.53;;;24.70;45.88
19259;BME280;9763;48.780;9.212;2022-10-10T14:53:34;98434.91;;;24.66;46.08
19259;BME280;9763;48.780;9.212;2022-10-10T14:56:58;98435.50;;;24.61;45.99
19259;BME280;9763;48.780;9.212;2022-10-10T15:00:31;98428.88;;;24.57;45.51
19259;BME280;9763;48.780;9.212;2022-10-10T15:03:54;98434.56;;;24.54;45.56
19259;BME280;9763;48.780;9.212;2022-10-10T15:07:18;98431.25;;;24.52;45.58
19259;BME280;9763;48.780;9.212;2022-10-10T15:10:42;98433.69;;;24.47;46.04
19259;BME280;9763;48.780;9.212;2022-10-10T15:14:06;98433.41;;;24.42;46.09
19259;BME280;9763;48.780;9.212;2022-10-10T15:17:31;98437.47;;;24.38;45.63
19259;BME280;9763;48.780;9.212;2022-10-10T15:20:55;98444.56;;;24.31;46.53
19259;BME280;9763;48.780;9.212;2022-10-10T15:24:19;98440.16;;;24.23;45.83
19259;BME280;9763;48.780;9.212;2022-10-10T15:27:43;98448.69;;;24.19;46.17
19259;BME280;9763;48.780;9.212;2022-10-10T15:31:07;98451.28;;;24.12;46.74
19259;BME280;9763;48.780;9.212;2022-10-10T15:34:32;98455.47;;;24.06;46.25
19259;BME280;9763;48.780;9.212;2022-10-10T15:37:57;98454.56;;;23.99;46.85
19259;BME280;9763;48.780;9.212;2022-10-10T15:41:21;98457.78;;;23.95;47.12
19259;BME280;9763;48.780;9.212;2022-10-10T15:44:46;98458.16;;;23.92;47.14
19259;BME280;9763;48.780;9.212;2022-10-10T15:48:09;98465.53;;;23.90;46.53
19259;BME280;9763;48.780;9.212;2022-10-10T15:51:35;98469.56;;;23.86;46.71
19259;BME280;9763;48.780;9.212;2022-10-10T15:55:01;98471.75;;;23.82;47.20
19259;BME280;9763;48.780;9.212;2022-10-10T15:58:26;98471.47;;;23.77;47.38
19259;BME280;9763;48.780;9.212;2022-10-10T16:01:51;98470.19;;;23.73;47.49
19259;BME280;9763;48.780;9.212;2022-10-10T16:05:15;98471.94;;;23.66;46.91
19259;BME280;9763;48.780;9.212;2022-10-10T16:08:41;98471.16;;;23.57;47.86
19259;BME280;9763;48.780;9.212;2022-10-10T16:12:06;98468.72;;;23.48;47.78
19259;BME280;9763;48.780;9.212;2022-10-10T16:15:30;98470.97;;;23.36;47.44
19259;BME280;9763;48.780;9.212;2022-10-10T16:18:54;98466.09;;;23.25;47.62
19259;BME280;9763;48.780;9.212;2022-10-10T16:22:18;98474.84;;;23.11;47.95
19259;BME280;9763;48.780;9.212;2022-10-10T16:25:44;98478.44;;;22.95;47.60
19259;BME280;9763;48.780;9.212;2022-10-10T16:29:09;98492.81;;;22.86;48.59
19259;BME280;9763;48.780;9.212;2022-10-10T16:32:33;98489.19;;;22.79;48.34
19259;BME280;9763;48.780;9.212;2022-10-10T16:36:08;98494.00;;;22.75;48.56
19259;BME280;9763;48.780;9.212;2022-10-10T16:39:33;98492.69;;;22.71;48.43
19259;BME280;9763;48.780;9.212;2022-10-10T16:42:58;98501.88;;;22.69;47.93
19259;BME280;9763;48.780;9.212;2022-10-10T16:46:24;98509.03;;;22.60;48.08
19259;BME280;9763;48.780;9.212;2022-10-10T16:49:47;98503.28;;;22.48;48.52
19259;BME280;9763;48.780;9.212;2022-10-10T16:53:11;98506.47;;;22.36;48.42
19259;BME280;9763;48.780;9.212;2022-10-10T16:56:35;98509.03;;;22.21;48.40
19259;BME280;9763;48.780;9.212;2022-10-10T17:00:00;98504.88;;;22.10;49.06
19259;BME280;9763;48.780;9.212;2022-10-10T17:03:24;98510.22;;;22.02;49.13
19259;BME280;9763;48.780;9.212;2022-10-10T17:06:48;98508.25;;;21.96;49.29
19259;BME280;9763;48.780;9.212;2022-10-10T17:10:12;98513.72;;;21.86;49.45
19259;BME280;9763;48.780;9.212;2022-10-10T17:13:36;98512.22;;;21.76;49.30
19259;BME280;9763;48.780;9.212;2022-10-10T17:17:01;98509.09;;;21.64;49.26
19259;BME280;9763;48.780;9.212;2022-10-10T17:20:35;98507.59;;;21.53;49.61
19259;BME280;9763;48.780;9.212;2022-10-10T17:24:03;98525.06;;;21.48;49.39
19259;BME280;9763;48.780;9.212;2022-10-10T17:27:27;98522.38;;;21.40;49.61
19259;BME280;9763;48.780;9.212;2022-10-10T17:30:51;98521.53;;;21.31;49.24
19259;BME280;9763;48.780;9.212;2022-10-10T17:34:16;98525.69;;;21.26;49.26
19259;BME280;9763;48.780;9.212;2022-10-10T17:37:39;98530.81;;;21.19;49.81
19259;BME280;9763;48.780;9.212;2022-10-10T17:41:05;98527.31;;;21.10;49.66
19259;BME280;9763;48.780;9.212;2022-10-10T17:44:31;98537.56;;;21.05;49.97
19259;BME280;9763;48.780;9.212;2022-10-10T17:48:03;98536.41;;;21.08;49.51
19259;BME280;9763;48.780;9.212;2022-10-10T17:51:32;98541.88;;;21.14;50.13
19259;BME280;9763;48.780;9.212;2022-10-10T17:54:56;98548.56;;;21.18;49.53
19259;BME280;9763;48.780;9.212;2022-10-10T17:58:19;98547.44;;;21.21;49.78
19259;BME280;9763;48.780;9.212;2022-10-10T18:01:43;98547.09;;;21.24;49.72
19259;BME280;9763;48.780;9.212;2022-10-10T18:05:07;98555.56;;;21.28;50.36
19259;BME280;9763;48.780;9.212;2022-10-10T18:08:31;98547.78;;;21.34;50.41
19259;BME280;9763;48.780;9.212;2022-10-10T18:11:55;98544.47;;;21.32;50.37
19259;BME280;9763;48.780;9.212;2022-10-10T18:15:18;98552.25;;;21.34;50.26
19259;BME280;9763;48.780;9.212;2022-10-10T18:18:44;98552.91;;;21.28;49.97
19259;BME280;9763;48.780;9.212;2022-10-10T18:22:12;98573.66;;;21.24;50.16
19259;BME280;9763;48.780;9.212;2022-10-10T18:25:37;98629.56;;;21.23;50.89
19259;BME280;9763;48.780;9.212;2022-10-10T18:29:01;98631.84;;;21.17;51.51
19259;BME280;9763;48.780;9.212;2022-10-10T18:32:24;98659.09;;;20.85;53.21
19259;BME280;9763;48.780;9.212;2022-10-10T18:35:48;98668.09;;;20.41;55.90
19259;BME280;9763;48.780;9.212;2022-10-10T18:39:14;98670.13;;;20.03;59.04
19259;BME280;9763;48.780;9.212;2022-10-10T18:42:41;98669.56;;;19.82;62.19